Delta Virtual Airport Information Service

Munich Airport

ICAO: EDDM Country: Germany
Latitude: 48.3538 Longitude: 11.7861
Latest Arrival : DLH2557 (UGTB-EDDM) Latest Departure : DLH412 (EDDM-KEWR)


WX CaptureLIVE
Data provided by noaa.gov | Fetched at 11:46:31

METAR : EDDM 151620Z 34004KT 280V020 CAVOK 27/11 Q1018 NOSIG

TAF : EDDM 151100Z 1512/1618 06005KT CAVOK BECMG 1516/1518 VRB03KT BECMG 1607/1609 09006KT


Runway Data for EDDM
Data provided by openaviationdata.com

Runway ID Mag Var Hdg Length Elevation Surface ILS Freq ILS Id ILS Slope
08L 1 82° 13097 ft 1486 ft Concrete 109.5 IMNE 3
08R 1 82° 13097 ft 1486 ft Concrete 109.3 IMSE 3
26L 1 262° 13097 ft 1486 ft Concrete 108.3 IMSW 3
26R 1 262° 13097 ft 1486 ft Concrete 108.7 IMNW 3

Munich Airport, Germany
Use only for reference purposes



Not for navigational purposes.